Time;durP1;ratioP1;P1;durP2;ratioP2;P2;SDS_P1;SDS_P2;PMS_P1;PMS_P2;Temp;Humidity;BMP_temperature;BMP_pressure;BME280_temperature;BME280_humidity;BME280_pressure;Samples;Min_cycle;Max_cycle;Signal;HPM_P1;HPM_P2
2021/05/21 00:00:54;;;;;;;3.42;1.88;;;;;;;;;;4972260;29;20028;-87
2021/05/21 00:03:40;;;;;;;3.33;2.17;;;;;;;;;;4954925;28;19999;-87
2021/05/21 00:06:26;;;;;;;3.05;1.60;;;;;;;;;;4953344;28;20011;-87
2021/05/21 00:09:11;;;;;;;3.25;1.88;;;;;;;;;;4944670;28;20153;-84
2021/05/21 00:11:56;;;;;;;7.13;2.05;;;;;;;;;;4946822;29;20027;-86
2021/05/21 00:14:41;;;;;;;7.05;1.98;;;;;;;;;;4952439;28;20063;-87
2021/05/21 00:17:27;;;;;;;4.25;1.88;;;;;;;;;;4958901;28;20018;-86
2021/05/21 00:20:12;;;;;;;3.70;2.03;;;;;;;;;;4956864;29;20015;-86
2021/05/21 00:22:57;;;;;;;5.50;2.10;;;;;;;;;;4961320;28;20007;-85
2021/05/21 00:25:43;;;;;;;5.10;1.98;;;;;;;;;;4955749;28;20019;-86
2021/05/21 00:28:28;;;;;;;3.15;1.63;;;;;;;;;;4959987;29;20011;-87
2021/05/21 00:31:13;;;;;;;6.45;2.95;;;;;;;;;;4958751;29;20037;-86
2021/05/21 00:33:59;;;;;;;3.75;1.63;;;;;;;;;;4962512;29;20023;-86
2021/05/21 00:36:44;;;;;;;5.38;1.88;;;;;;;;;;4941489;29;20023;-84
2021/05/21 00:39:29;;;;;;;4.70;1.80;;;;;;;;;;4941912;28;20106;-86
2021/05/21 00:42:14;;;;;;;2.67;1.55;;;;;;;;;;4939909;29;20038;-86
2021/05/21 00:45:00;;;;;;;3.13;1.95;;;;;;;;;;4938818;28;20022;-85
2021/05/21 00:47:45;;;;;;;5.45;1.90;;;;;;;;;;4951091;29;20107;-87
2021/05/21 00:50:30;;;;;;;3.00;1.90;;;;;;;;;;4939079;28;20111;-85
2021/05/21 00:53:17;;;;;;;2.65;1.95;;;;;;;;;;4941091;29;20094;-87
2021/05/21 00:56:03;;;;;;;2.55;1.60;;;;;;;;;;4940850;28;22775;-87
2021/05/21 00:58:48;;;;;;;3.08;1.70;;;;;;;;;;4939849;29;20095;-85
2021/05/21 01:01:33;;;;;;;2.88;1.60;;;;;;;;;;4940318;28;20050;-85
2021/05/21 01:04:18;;;;;;;3.47;1.60;;;;;;;;;;4941629;29;20020;-87
2021/05/21 01:07:04;;;;;;;2.03;1.50;;;;;;;;;;4947882;28;20026;-87
2021/05/21 01:09:50;;;;;;;2.20;1.45;;;;;;;;;;4939049;28;20027;-86
2021/05/21 01:12:35;;;;;;;2.88;1.60;;;;;;;;;;4939178;28;20047;-86
2021/05/21 01:15:20;;;;;;;2.63;1.83;;;;;;;;;;4932480;29;20114;-86
2021/05/21 01:18:06;;;;;;;2.58;1.70;;;;;;;;;;4938136;29;20031;-84
2021/05/21 01:20:51;;;;;;;3.88;2.03;;;;;;;;;;4950691;28;20020;-85
2021/05/21 01:23:36;;;;;;;4.03;2.03;;;;;;;;;;4939298;28;20058;-85
2021/05/21 01:26:22;;;;;;;3.58;1.80;;;;;;;;;;4939182;29;20496;-85
2021/05/21 01:29:07;;;;;;;3.80;1.65;;;;;;;;;;4945007;28;20043;-85
2021/05/21 01:31:52;;;;;;;4.35;1.55;;;;;;;;;;4938650;28;20102;-85
2021/05/21 01:34:39;;;;;;;3.70;1.50;;;;;;;;;;4942034;29;20497;-84
2021/05/21 01:37:24;;;;;;;1.83;1.50;;;;;;;;;;4950433;28;20111;-84
2021/05/21 01:40:10;;;;;;;3.38;1.90;;;;;;;;;;4931007;29;20027;-83
2021/05/21 01:42:56;;;;;;;7.43;1.67;;;;;;;;;;4940267;28;20019;-85
2021/05/21 01:45:41;;;;;;;3.00;1.77;;;;;;;;;;4940571;28;20078;-86
2021/05/21 01:48:26;;;;;;;8.35;1.70;;;;;;;;;;4938473;28;20023;-86
2021/05/21 01:51:13;;;;;;;2.78;2.03;;;;;;;;;;4940330;29;20114;-86
2021/05/21 01:54:14;;;;;;;5.32;2.00;;;;;;;;;;4934728;28;20577;-84
2021/05/21 01:57:00;;;;;;;5.03;1.98;;;;;;;;;;4936950;29;20074;-84
2021/05/21 01:59:45;;;;;;;6.22;2.40;;;;;;;;;;4938341;29;20071;-84
2021/05/21 02:02:31;;;;;;;2.35;1.48;;;;;;;;;;4940645;28;20106;-85
2021/05/21 02:05:16;;;;;;;3.97;1.70;;;;;;;;;;4935474;28;20030;-84
2021/05/21 02:08:01;;;;;;;3.10;1.88;;;;;;;;;;4939411;28;20019;-85
2021/05/21 02:10:46;;;;;;;4.47;1.70;;;;;;;;;;4944897;28;20031;-85
2021/05/21 02:13:31;;;;;;;4.13;1.42;;;;;;;;;;4944444;28;20145;-85
2021/05/21 02:16:17;;;;;;;4.65;1.52;;;;;;;;;;4939982;28;20032;-84
2021/05/21 02:19:02;;;;;;;3.03;1.60;;;;;;;;;;4938515;28;20031;-85
2021/05/21 02:21:48;;;;;;;4.75;1.30;;;;;;;;;;4937843;29;20019;-84
2021/05/21 02:24:34;;;;;;;2.75;1.48;;;;;;;;;;4934627;28;20378;-83
2021/05/21 02:27:19;;;;;;;5.10;1.98;;;;;;;;;;4944469;29;20062;-86
2021/05/21 02:30:05;;;;;;;2.13;1.63;;;;;;;;;;4937783;28;20498;-85
2021/05/21 02:32:50;;;;;;;3.28;1.92;;;;;;;;;;4944547;29;20098;-86
2021/05/21 02:35:35;;;;;;;4.93;1.67;;;;;;;;;;4938949;28;20016;-86
2021/05/21 02:38:21;;;;;;;3.38;1.42;;;;;;;;;;4936888;29;20026;-86
2021/05/21 02:41:06;;;;;;;2.58;1.40;;;;;;;;;;4937352;28;20410;-85
2021/05/21 02:43:51;;;;;;;2.55;1.73;;;;;;;;;;4935871;28;20042;-85
2021/05/21 02:46:36;;;;;;;2.25;1.75;;;;;;;;;;4940752;28;20337;-86
2021/05/21 02:49:22;;;;;;;2.63;1.60;;;;;;;;;;4936937;29;20059;-86
2021/05/21 02:52:07;;;;;;;5.80;2.00;;;;;;;;;;4965869;28;20030;-86
2021/05/21 02:54:52;;;;;;;2.63;1.50;;;;;;;;;;4969309;28;20061;-87
2021/05/21 02:57:37;;;;;;;1.80;1.30;;;;;;;;;;4942977;29;20050;-87
2021/05/21 03:00:23;;;;;;;3.42;1.55;;;;;;;;;;4939560;29;20055;-85
2021/05/21 03:03:08;;;;;;;3.50;1.50;;;;;;;;;;4940701;29;20099;-85
2021/05/21 03:05:55;;;;;;;4.32;1.35;;;;;;;;;;4956740;28;20026;-85
2021/05/21 03:08:40;;;;;;;3.80;1.60;;;;;;;;;;4957646;28;20090;-85
2021/05/21 03:11:25;;;;;;;4.15;1.80;;;;;;;;;;4953485;28;20063;-85
2021/05/21 03:14:10;;;;;;;2.13;1.55;;;;;;;;;;4959203;29;20008;-85
2021/05/21 03:16:56;;;;;;;2.13;1.58;;;;;;;;;;4950575;29;20344;-85
2021/05/21 03:19:41;;;;;;;2.47;1.42;;;;;;;;;;4948349;29;20035;-86
2021/05/21 03:22:26;;;;;;;1.65;1.30;;;;;;;;;;4936857;29;20533;-84
2021/05/21 03:25:12;;;;;;;6.80;1.55;;;;;;;;;;4960318;28;20307;-85
2021/05/21 03:27:57;;;;;;;4.35;1.52;;;;;;;;;;4946342;28;20102;-85
2021/05/21 03:30:42;;;;;;;3.42;1.73;;;;;;;;;;4932972;29;20030;-84
2021/05/21 03:33:27;;;;;;;4.65;1.80;;;;;;;;;;4934352;28;20034;-84
2021/05/21 03:36:13;;;;;;;3.28;1.70;;;;;;;;;;4944499;28;20537;-84
2021/05/21 03:38:58;;;;;;;4.38;1.70;;;;;;;;;;4934282;28;20513;-84
2021/05/21 03:41:43;;;;;;;3.20;1.58;;;;;;;;;;4936611;28;20027;-84
2021/05/21 03:44:28;;;;;;;3.08;1.55;;;;;;;;;;4937082;28;20038;-84
2021/05/21 03:47:13;;;;;;;3.85;2.03;;;;;;;;;;4934057;29;20029;-83
2021/05/21 03:49:59;;;;;;;2.65;1.48;;;;;;;;;;4925047;28;20043;-82
2021/05/21 03:52:45;;;;;;;3.35;1.55;;;;;;;;;;4940226;28;20051;-83
2021/05/21 03:55:30;;;;;;;2.70;1.58;;;;;;;;;;4943287;28;20134;-83
2021/05/21 03:58:15;;;;;;;4.60;1.70;;;;;;;;;;4933988;28;20067;-84
2021/05/21 04:01:01;;;;;;;3.55;1.55;;;;;;;;;;4942627;28;20034;-84
2021/05/21 04:03:46;;;;;;;5.88;2.15;;;;;;;;;;4942906;28;20031;-84
2021/05/21 04:06:32;;;;;;;4.95;1.83;;;;;;;;;;4936876;29;20031;-83
2021/05/21 04:09:17;;;;;;;4.85;1.65;;;;;;;;;;4931814;29;20078;-86
2021/05/21 04:12:02;;;;;;;3.15;1.55;;;;;;;;;;4948242;28;20023;-85
2021/05/21 04:14:48;;;;;;;6.85;1.70;;;;;;;;;;4922566;28;20019;-85
2021/05/21 04:17:33;;;;;;;7.65;2.08;;;;;;;;;;4933689;29;20107;-85
2021/05/21 04:20:18;;;;;;;6.07;1.77;;;;;;;;;;4937657;28;20029;-86
2021/05/21 04:23:04;;;;;;;4.55;1.65;;;;;;;;;;4937344;29;20034;-86
2021/05/21 04:25:51;;;;;;;1.75;1.40;;;;;;;;;;4934073;28;20023;-86
2021/05/21 04:28:36;;;;;;;3.53;2.08;;;;;;;;;;4936536;29;20024;-87
2021/05/21 04:31:21;;;;;;;3.20;2.00;;;;;;;;;;4938038;29;20126;-86
2021/05/21 04:34:06;;;;;;;2.65;1.52;;;;;;;;;;4934380;29;20042;-86
2021/05/21 04:36:51;;;;;;;2.92;1.67;;;;;;;;;;4941527;28;20031;-85
2021/05/21 04:39:37;;;;;;;4.07;1.58;;;;;;;;;;4931725;28;20459;-83
2021/05/21 04:42:22;;;;;;;4.85;1.80;;;;;;;;;;4940192;28;20431;-85
2021/05/21 04:45:07;;;;;;;4.93;2.22;;;;;;;;;;4935116;28;20427;-84
2021/05/21 04:47:53;;;;;;;3.40;1.70;;;;;;;;;;4934067;29;20446;-85
2021/05/21 04:50:38;;;;;;;4.50;1.70;;;;;;;;;;4948206;28;20026;-88
2021/05/21 04:53:24;;;;;;;4.90;1.50;;;;;;;;;;4936168;29;20031;-85
2021/05/21 04:56:10;;;;;;;2.80;1.35;;;;;;;;;;4918116;29;20126;-86
2021/05/21 04:58:55;;;;;;;4.32;1.85;;;;;;;;;;4937889;28;20019;-84
2021/05/21 05:01:40;;;;;;;4.03;1.77;;;;;;;;;;4934954;28;20019;-85
2021/05/21 05:04:26;;;;;;;6.57;1.52;;;;;;;;;;4934062;28;20236;-85
2021/05/21 05:07:11;;;;;;;6.25;2.10;;;;;;;;;;4946418;28;20023;-86
2021/05/21 05:09:56;;;;;;;5.07;1.98;;;;;;;;;;4936351;29;20030;-86
2021/05/21 05:12:41;;;;;;;4.45;1.75;;;;;;;;;;4938545;28;20026;-86
2021/05/21 05:15:27;;;;;;;4.47;1.92;;;;;;;;;;4935798;29;20446;-86
2021/05/21 05:18:12;;;;;;;8.10;2.55;;;;;;;;;;4927095;29;20057;-84
2021/05/21 05:20:58;;;;;;;8.07;2.35;;;;;;;;;;4935503;29;20034;-84
2021/05/21 05:23:43;;;;;;;5.72;1.80;;;;;;;;;;4921495;29;20731;-84
2021/05/21 05:26:29;;;;;;;4.38;1.85;;;;;;;;;;4925213;29;20371;-84
2021/05/21 05:29:15;;;;;;;3.53;1.85;;;;;;;;;;4936543;28;20552;-86
2021/05/21 05:32:02;;;;;;;3.83;1.38;;;;;;;;;;4934236;28;20059;-83
2021/05/21 05:34:47;;;;;;;3.53;1.77;;;;;;;;;;4936757;29;20110;-83
2021/05/21 05:37:33;;;;;;;7.32;1.65;;;;;;;;;;4933831;29;20023;-84
2021/05/21 05:40:18;;;;;;;2.85;1.48;;;;;;;;;;4931091;29;20133;-84
2021/05/21 05:43:04;;;;;;;3.75;1.50;;;;;;;;;;4941067;28;20031;-92
2021/05/21 05:49:09;;;;;;;4.05;1.50;;;;;;;;;;4933190;28;20782;-89
2021/05/21 05:51:54;;;;;;;4.38;1.73;;;;;;;;;;4933062;29;20019;-82
2021/05/21 05:54:39;;;;;;;7.65;1.75;;;;;;;;;;4934745;29;20078;-83
2021/05/21 05:57:25;;;;;;;5.15;1.92;;;;;;;;;;4935065;28;20027;-85
2021/05/21 06:00:10;;;;;;;5.05;1.75;;;;;;;;;;4954381;28;20034;-86
2021/05/21 06:02:55;;;;;;;2.17;1.45;;;;;;;;;;4934669;28;20019;-87
2021/05/21 06:05:40;;;;;;;4.30;1.50;;;;;;;;;;4937494;29;20038;-87
2021/05/21 06:08:26;;;;;;;2.40;1.60;;;;;;;;;;4949015;28;20406;-89
2021/05/21 06:11:11;;;;;;;2.00;1.30;;;;;;;;;;4936604;29;20395;-87
2021/05/21 06:13:56;;;;;;;3.45;1.58;;;;;;;;;;4941266;29;20031;-89
2021/05/21 06:16:43;;;;;;;6.38;1.60;;;;;;;;;;4937003;29;20108;-85
2021/05/21 06:19:28;;;;;;;6.22;1.75;;;;;;;;;;4938051;29;20035;-89
2021/05/21 06:22:14;;;;;;;5.25;2.63;;;;;;;;;;4941024;29;20035;-87
2021/05/21 06:25:06;;;;;;;8.25;1.90;;;;;;;;;;4936876;29;20122;-84
2021/05/21 06:27:51;;;;;;;2.60;1.58;;;;;;;;;;4936507;28;20787;-86
2021/05/21 06:30:37;;;;;;;7.50;3.05;;;;;;;;;;4931163;29;20182;-87
2021/05/21 06:33:25;;;;;;;3.13;1.52;;;;;;;;;;4932652;29;20040;-86
2021/05/21 06:36:10;;;;;;;3.22;1.42;;;;;;;;;;4936675;29;20027;-85
2021/05/21 06:38:56;;;;;;;4.72;1.95;;;;;;;;;;4918399;28;20037;-84
2021/05/21 06:41:41;;;;;;;3.00;1.52;;;;;;;;;;4931479;28;20023;-84
2021/05/21 06:44:27;;;;;;;3.05;1.60;;;;;;;;;;4941967;28;20019;-83
2021/05/21 06:47:13;;;;;;;6.10;2.53;;;;;;;;;;4937692;28;20160;-83
2021/05/21 06:49:58;;;;;;;4.15;1.75;;;;;;;;;;4937028;28;20023;-84
2021/05/21 06:52:43;;;;;;;2.50;1.40;;;;;;;;;;4941956;28;20417;-85
2021/05/21 06:55:28;;;;;;;20.85;13.07;;;;;;;;;;4930804;28;20423;-84
2021/05/21 06:58:14;;;;;;;17.75;12.88;;;;;;;;;;4937764;29;20035;-87
2021/05/21 07:00:59;;;;;;;6.38;3.20;;;;;;;;;;4938527;28;20067;-88
2021/05/21 07:03:44;;;;;;;5.18;2.05;;;;;;;;;;4945828;28;20089;-87
2021/05/21 07:06:29;;;;;;;2.03;1.20;;;;;;;;;;4935081;28;20026;-86
2021/05/21 07:09:14;;;;;;;6.43;1.40;;;;;;;;;;4942343;29;20375;-87
2021/05/21 07:12:00;;;;;;;5.30;1.60;;;;;;;;;;4920240;29;20031;-88
2021/05/21 07:14:45;;;;;;;6.88;1.40;;;;;;;;;;4939299;28;20027;-88
2021/05/21 07:17:30;;;;;;;4.47;1.83;;;;;;;;;;4956727;28;20027;-87
2021/05/21 07:20:16;;;;;;;3.58;1.58;;;;;;;;;;4946848;29;20393;-89
2021/05/21 07:23:01;;;;;;;3.15;1.38;;;;;;;;;;4939726;28;20114;-88
2021/05/21 07:25:46;;;;;;;3.58;1.63;;;;;;;;;;4944885;28;20028;-89
2021/05/21 07:28:31;;;;;;;1.80;1.40;;;;;;;;;;4944050;28;20025;-88
2021/05/21 07:31:17;;;;;;;4.40;1.25;;;;;;;;;;4920753;28;20027;-85
2021/05/21 07:34:05;;;;;;;6.07;1.63;;;;;;;;;;4943565;29;20038;-87
2021/05/21 07:36:50;;;;;;;11.98;7.88;;;;;;;;;;4932206;28;20039;-88
2021/05/21 07:39:36;;;;;;;7.88;3.30;;;;;;;;;;4939636;29;20035;-91
2021/05/21 07:42:21;;;;;;;2.10;1.08;;;;;;;;;;4938886;28;20027;-87
2021/05/21 07:45:07;;;;;;;4.38;1.98;;;;;;;;;;4943549;28;20118;-90
2021/05/21 07:47:52;;;;;;;6.38;1.92;;;;;;;;;;4944280;28;20031;-87
2021/05/21 07:50:39;;;;;;;5.40;1.50;;;;;;;;;;4939253;28;20031;-87
2021/05/21 07:53:24;;;;;;;2.38;1.60;;;;;;;;;;4936482;28;20078;-88
2021/05/21 07:56:10;;;;;;;4.97;1.20;;;;;;;;;;4942846;29;20122;-89
2021/05/21 07:58:55;;;;;;;4.68;1.10;;;;;;;;;;4937021;29;20091;-90
2021/05/21 08:01:41;;;;;;;3.38;1.10;;;;;;;;;;4938594;29;20102;-88
2021/05/21 08:04:26;;;;;;;5.78;1.55;;;;;;;;;;4952569;29;20077;-88
2021/05/21 08:07:12;;;;;;;3.33;1.48;;;;;;;;;;4940332;29;20035;-87
2021/05/21 08:10:15;;;;;;;4.45;1.42;;;;;;;;;;4953212;28;20114;-92
2021/05/21 08:13:03;;;;;;;1.95;1.20;;;;;;;;;;4954312;28;20066;-90
2021/05/21 08:15:49;;;;;;;3.63;1.10;;;;;;;;;;4954041;29;20023;-89
2021/05/21 08:18:37;;;;;;;1.23;1.00;;;;;;;;;;4948217;29;20016;-90
2021/05/21 08:21:48;;;;;;;4.85;1.10;;;;;;;;;;4962983;28;20007;-92
2021/05/21 08:25:04;;;;;;;;;;;;;;;;;;;;;
2021/05/21 08:27:51;;;;;;;5.90;2.40;;;;;;;;;;4915338;29;20063;-87
2021/05/21 08:30:36;;;;;;;4.15;1.20;;;;;;;;;;4952184;29;20023;-88
2021/05/21 08:33:27;;;;;;;4.90;1.15;;;;;;;;;;4952313;28;20019;-87
2021/05/21 08:36:14;;;;;;;3.78;2.15;;;;;;;;;;4953998;29;20038;-89
2021/05/21 08:38:59;;;;;;;4.65;1.23;;;;;;;;;;4957039;28;20038;-90
2021/05/21 08:41:48;;;;;;;4.82;1.55;;;;;;;;;;4958610;29;20057;-88
2021/05/21 08:44:35;;;;;;;2.38;1.38;;;;;;;;;;4941657;29;20027;-93
2021/05/21 08:47:21;;;;;;;3.70;1.60;;;;;;;;;;4942758;29;20027;-90
2021/05/21 08:50:07;;;;;;;5.60;1.30;;;;;;;;;;4938830;28;20087;-88
2021/05/21 08:52:53;;;;;;;4.85;2.13;;;;;;;;;;4949762;28;20087;-90
2021/05/21 08:55:38;;;;;;;2.88;1.83;;;;;;;;;;4938181;29;20051;-91
2021/05/21 08:58:23;;;;;;;3.38;1.40;;;;;;;;;;4956907;28;20368;-89
2021/05/21 09:01:09;;;;;;;3.25;1.52;;;;;;;;;;5491770;23;20510;-88
2021/05/21 09:03:59;;;;;;;3.78;1.15;;;;;;;;;;4944109;28;20022;-89
2021/05/21 09:06:44;;;;;;;5.35;1.65;;;;;;;;;;4961404;28;20328;-89
2021/05/21 09:10:27;;;;;;;6.90;1.08;;;;;;;;;;4944830;28;20027;-92
2021/05/21 09:12:53;;;;;;;5.60;1.00;;;;;;;;;;4952915;28;20035;-88
2021/05/21 09:15:42;;;;;;;4.65;1.98;;;;;;;;;;4953284;28;21622;-90
2021/05/21 09:18:31;;;;;;;3.88;2.10;;;;;;;;;;4948749;28;20026;-88
2021/05/21 09:21:47;;;;;;;9.65;4.38;;;;;;;;;;4948870;29;20027;-90
2021/05/21 09:24:36;;;;;;;;;;;;;;;;;;4942709;28;20030;-89
2021/05/21 09:31:11;;;;;;;7.22;1.30;;;;;;;;;;4916654;28;20031;-89
2021/05/21 09:34:16;;;;;;;6.45;1.20;;;;;;;;;;4941125;28;20066;-90
2021/05/21 09:37:01;;;;;;;2.58;1.00;;;;;;;;;;4944224;28;20105;-90
2021/05/21 09:40:19;;;;;;;2.75;0.98;;;;;;;;;;4946144;29;20019;-88
2021/05/21 09:43:05;;;;;;;6.93;1.30;;;;;;;;;;4913743;28;20031;-89
2021/05/21 09:45:54;;;;;;;2.08;0.93;;;;;;;;;;4958879;28;20107;-90
2021/05/21 09:52:07;;;;;;;5.97;2.13;;;;;;;;;;4861345;29;20032;-86
2021/05/21 09:54:52;;;;;;;4.97;1.10;;;;;;;;;;4942687;29;20137;-90
2021/05/21 09:58:00;;;;;;;3.60;2.30;;;;;;;;;;4946414;28;20492;-93
2021/05/21 10:01:20;;;;;;;2.55;0.82;;;;;;;;;;4942568;28;20705;-93
2021/05/21 10:04:08;;;;;;;3.63;0.88;;;;;;;;;;4941617;28;20641;-86
2021/05/21 10:06:54;;;;;;;0.80;0.80;;;;;;;;;;4943694;28;20386;-81
2021/05/21 10:09:42;;;;;;;2.03;0.95;;;;;;;;;;4934490;28;20451;-89
2021/05/21 10:12:27;;;;;;;3.15;0.98;;;;;;;;;;4929181;28;20031;-84
2021/05/21 10:15:13;;;;;;;2.20;0.80;;;;;;;;;;4937224;28;20069;-86
2021/05/21 10:18:09;;;;;;;4.50;0.82;;;;;;;;;;4937442;28;20088;-86
2021/05/21 10:20:56;;;;;;;4.07;0.90;;;;;;;;;;4940798;28;20031;-86
2021/05/21 10:23:44;;;;;;;6.47;1.95;;;;;;;;;;4947589;28;20046;-85
2021/05/21 10:26:34;;;;;;;8.55;3.30;;;;;;;;;;4944964;28;20023;-84
2021/05/21 10:29:21;;;;;;;3.35;1.70;;;;;;;;;;4938319;28;20039;-85
2021/05/21 10:32:27;;;;;;;1.60;1.08;;;;;;;;;;4952335;28;20037;-86
2021/05/21 10:35:19;;;;;;;3.90;1.13;;;;;;;;;;4943131;28;20026;-88
2021/05/21 10:38:18;;;;;;;4.25;1.10;;;;;;;;;;4928428;28;20490;-87
2021/05/21 10:41:16;;;;;;;3.70;0.80;;;;;;;;;;4937511;28;20031;-87
2021/05/21 10:44:16;;;;;;;6.28;2.22;;;;;;;;;;4938180;28;20033;-85
2021/05/21 10:47:31;;;;;;;1.92;1.00;;;;;;;;;;4939149;29;20194;-88
2021/05/21 10:50:18;;;;;;;2.97;1.23;;;;;;;;;;4947948;28;20042;-90
2021/05/21 10:53:04;;;;;;;2.78;1.17;;;;;;;;;;4941391;28;20081;-88
2021/05/21 10:55:55;;;;;;;5.03;1.50;;;;;;;;;;4931357;28;20031;-87
2021/05/21 10:58:53;;;;;;;4.05;1.08;;;;;;;;;;4946761;28;20490;-88
2021/05/21 11:01:45;;;;;;;4.53;1.15;;;;;;;;;;4938408;28;20054;-87
2021/05/21 11:04:31;;;;;;;4.03;1.50;;;;;;;;;;4944562;28;20077;-89
2021/05/21 11:07:36;;;;;;;3.42;1.20;;;;;;;;;;4938329;28;20486;-89
2021/05/21 11:10:34;;;;;;;2.55;1.42;;;;;;;;;;4944705;28;20481;-87
2021/05/21 11:13:21;;;;;;;2.47;1.23;;;;;;;;;;4937595;28;20027;-88
2021/05/21 11:16:13;;;;;;;2.05;1.00;;;;;;;;;;4927212;28;20059;-89
2021/05/21 11:19:04;;;;;;;4.28;1.60;;;;;;;;;;4938668;28;20031;-83
2021/05/21 11:21:50;;;;;;;4.05;1.20;;;;;;;;;;4937971;28;20027;-82
2021/05/21 11:24:36;;;;;;;2.80;1.35;;;;;;;;;;4936019;28;20067;-83
2021/05/21 11:27:22;;;;;;;2.28;0.95;;;;;;;;;;4932376;28;20031;-84
2021/05/21 11:30:08;;;;;;;4.10;1.45;;;;;;;;;;4943826;28;20445;-83
2021/05/21 11:32:54;;;;;;;4.72;1.27;;;;;;;;;;4935854;28;20027;-84
2021/05/21 11:35:39;;;;;;;1.80;1.33;;;;;;;;;;4946033;28;20019;-84
2021/05/21 11:38:25;;;;;;;3.95;1.85;;;;;;;;;;4934910;28;20027;-83
2021/05/21 11:41:11;;;;;;;2.92;1.30;;;;;;;;;;4934287;28;20023;-83
2021/05/21 11:44:01;;;;;;;4.30;1.80;;;;;;;;;;4942751;28;20085;-83
2021/05/21 11:46:46;;;;;;;4.32;1.30;;;;;;;;;;4939618;28;20086;-84
2021/05/21 11:49:32;;;;;;;4.35;1.85;;;;;;;;;;4941768;28;20035;-86
2021/05/21 11:52:17;;;;;;;3.83;1.70;;;;;;;;;;4936728;29;20031;-83
2021/05/21 11:55:02;;;;;;;3.55;0.98;;;;;;;;;;4941312;28;20019;-83
2021/05/21 11:57:50;;;;;;;1.95;1.00;;;;;;;;;;4938922;28;20034;-82
2021/05/21 12:00:38;;;;;;;1.55;1.33;;;;;;;;;;4937758;28;20058;-83
2021/05/21 12:03:23;;;;;;;3.30;1.27;;;;;;;;;;4936535;28;20031;-84
2021/05/21 12:06:10;;;;;;;2.72;0.93;;;;;;;;;;4933826;28;20396;-84
2021/05/21 12:08:55;;;;;;;2.95;1.08;;;;;;;;;;4934683;28;20106;-83
2021/05/21 12:11:40;;;;;;;3.15;1.00;;;;;;;;;;4937827;28;21994;-84
2021/05/21 12:14:29;;;;;;;11.48;7.68;;;;;;;;;;4940656;28;20452;-83
2021/05/21 12:17:14;;;;;;;4.35;1.17;;;;;;;;;;4930954;28;20071;-83
2021/05/21 12:20:00;;;;;;;2.42;1.10;;;;;;;;;;4941112;28;20057;-82
2021/05/21 12:22:59;;;;;;;2.05;0.70;;;;;;;;;;4947296;28;20150;-81
2021/05/21 12:25:44;;;;;;;3.10;1.02;;;;;;;;;;4937146;28;20019;-83
2021/05/21 12:28:33;;;;;;;1.27;1.05;;;;;;;;;;4943627;28;20022;-83
2021/05/21 12:31:20;;;;;;;4.25;1.33;;;;;;;;;;4928007;28;20027;-82
2021/05/21 12:34:05;;;;;;;4.45;0.90;;;;;;;;;;4937392;28;20117;-83
2021/05/21 12:36:56;;;;;;;2.13;1.00;;;;;;;;;;4943037;28;20036;-82
2021/05/21 12:39:43;;;;;;;3.25;1.35;;;;;;;;;;4935348;28;20247;-83
2021/05/21 12:42:28;;;;;;;2.70;1.30;;;;;;;;;;4945683;28;20042;-82
2021/05/21 12:45:14;;;;;;;1.65;0.93;;;;;;;;;;4944339;28;20026;-82
2021/05/21 12:47:59;;;;;;;2.72;1.00;;;;;;;;;;4945603;28;20035;-83
2021/05/21 12:50:44;;;;;;;2.10;1.15;;;;;;;;;;4937625;28;20114;-82
2021/05/21 12:53:29;;;;;;;2.28;1.40;;;;;;;;;;4940175;28;20038;-81
2021/05/21 12:56:30;;;;;;;3.15;1.10;;;;;;;;;;4936934;29;20114;-81
2021/05/21 12:59:15;;;;;;;1.73;1.13;;;;;;;;;;4932602;28;20030;-82
2021/05/21 13:02:00;;;;;;;2.10;0.90;;;;;;;;;;4928868;28;20047;-82
2021/05/21 13:05:09;;;;;;;2.03;1.15;;;;;;;;;;4941637;28;20027;-83
2021/05/21 13:07:59;;;;;;;2.10;1.37;;;;;;;;;;4939636;28;20054;-83
2021/05/21 13:10:44;;;;;;;2.53;1.00;;;;;;;;;;4937806;28;20743;-83
2021/05/21 13:13:32;;;;;;;4.35;2.40;;;;;;;;;;4937374;28;20533;-83
2021/05/21 13:16:17;;;;;;;2.22;1.20;;;;;;;;;;4930737;28;20045;-84
2021/05/21 13:19:02;;;;;;;2.30;0.90;;;;;;;;;;4937237;28;20023;-83
2021/05/21 13:21:48;;;;;;;1.10;1.00;;;;;;;;;;4933975;28;20031;-84
2021/05/21 13:24:33;;;;;;;3.15;1.08;;;;;;;;;;4940974;28;20015;-84
2021/05/21 13:27:22;;;;;;;3.47;1.10;;;;;;;;;;4934521;28;20567;-84
2021/05/21 13:30:09;;;;;;;2.28;1.05;;;;;;;;;;4941868;29;20031;-84
2021/05/21 13:32:55;;;;;;;3.00;1.42;;;;;;;;;;4938082;28;20031;-84
2021/05/21 13:35:40;;;;;;;1.88;1.10;;;;;;;;;;4936629;28;20019;-83
2021/05/21 13:38:26;;;;;;;3.22;1.08;;;;;;;;;;4939579;28;20104;-92
2021/05/21 13:41:11;;;;;;;2.33;1.25;;;;;;;;;;4950383;28;20031;-90
2021/05/21 13:43:57;;;;;;;5.53;2.17;;;;;;;;;;4944158;29;20042;-91
2021/05/21 13:46:42;;;;;;;1.95;1.17;;;;;;;;;;4934778;28;20082;-90
2021/05/21 13:49:29;;;;;;;3.20;1.13;;;;;;;;;;4942856;29;20026;-91
2021/05/21 13:52:14;;;;;;;29.92;22.10;;;;;;;;;;4940136;29;20019;-92
2021/05/21 13:54:59;;;;;;;2.78;1.42;;;;;;;;;;4943453;28;20135;-92
2021/05/21 13:57:45;;;;;;;2.47;1.00;;;;;;;;;;4940552;28;20082;-92
2021/05/21 14:00:31;;;;;;;2.75;1.05;;;;;;;;;;4942571;28;20529;-92
2021/05/21 14:03:16;;;;;;;1.23;0.93;;;;;;;;;;4940926;29;20031;-89
2021/05/21 14:06:02;;;;;;;1.95;1.00;;;;;;;;;;4943531;28;20031;-92
2021/05/21 14:08:55;;;;;;;2.53;1.58;;;;;;;;;;4951057;28;20031;-94
2021/05/21 14:11:41;;;;;;;2.65;1.23;;;;;;;;;;4941789;29;20450;-90
2021/05/21 14:14:27;;;;;;;2.88;1.00;;;;;;;;;;4941665;28;20038;-87
2021/05/21 14:17:12;;;;;;;1.80;0.90;;;;;;;;;;4935405;28;20027;-91
2021/05/21 14:19:57;;;;;;;1.45;0.80;;;;;;;;;;4935470;28;20051;-92
2021/05/21 14:22:46;;;;;;;24.63;15.68;;;;;;;;;;4940173;28;20019;-91
2021/05/21 14:25:34;;;;;;;3.00;1.23;;;;;;;;;;4943705;28;20042;-93
2021/05/21 14:28:21;;;;;;;0.82;0.73;;;;;;;;;;4925170;28;20034;-92
2021/05/21 14:31:06;;;;;;;3.50;1.20;;;;;;;;;;4948429;28;20034;-94
2021/05/21 14:33:54;;;;;;;2.42;1.10;;;;;;;;;;4945979;29;20019;-93
2021/05/21 14:36:43;;;;;;;3.65;1.27;;;;;;;;;;4946935;28;20347;-93
2021/05/21 14:39:29;;;;;;;3.35;1.20;;;;;;;;;;4918966;29;20027;-88
2021/05/21 14:42:15;;;;;;;1.98;1.30;;;;;;;;;;4931802;29;20375;-87
2021/05/21 14:45:00;;;;;;;3.35;1.33;;;;;;;;;;4928235;28;20490;-87
2021/05/21 14:47:45;;;;;;;3.08;1.77;;;;;;;;;;4940380;28;20023;-89
2021/05/21 14:50:31;;;;;;;1.73;1.20;;;;;;;;;;4935585;28;20106;-90
2021/05/21 14:53:17;;;;;;;3.67;1.30;;;;;;;;;;4937660;29;20390;-89
2021/05/21 14:56:02;;;;;;;1.23;1.08;;;;;;;;;;4930747;28;20023;-89
2021/05/21 14:58:50;;;;;;;2.80;1.00;;;;;;;;;;4926951;29;20054;-89
2021/05/21 15:01:36;;;;;;;3.20;1.08;;;;;;;;;;4950138;29;20055;-89
2021/05/21 15:04:23;;;;;;;2.58;1.00;;;;;;;;;;4923725;28;20041;-87
2021/05/21 15:07:08;;;;;;;1.23;0.90;;;;;;;;;;4939974;29;20067;-87
2021/05/21 15:09:54;;;;;;;2.88;0.70;;;;;;;;;;4938960;28;20055;-86
2021/05/21 15:12:40;;;;;;;1.15;1.00;;;;;;;;;;4931933;28;20019;-87
2021/05/21 15:24:28;;;;;;;2.97;1.23;;;;;;;;;;4940714;28;20498;-89
2021/05/21 15:27:13;;;;;;;12.27;7.72;;;;;;;;;;4936958;28;20110;-88
2021/05/21 15:30:02;;;;;;;4.03;0.80;;;;;;;;;;4936464;28;20028;-89
2021/05/21 15:32:48;;;;;;;6.90;0.95;;;;;;;;;;4943188;28;20041;-88
2021/05/21 15:35:33;;;;;;;1.00;0.90;;;;;;;;;;4935249;28;20026;-88
2021/05/21 15:38:24;;;;;;;5.75;2.50;;;;;;;;;;4940673;28;20015;-93
2021/05/21 15:41:17;;;;;;;12.85;9.43;;;;;;;;;;4943138;28;20039;-84
2021/05/21 15:50:19;;;;;;;1.25;0.80;;;;;;;;;;4949129;28;20027;-90
2021/05/21 15:58:55;;;;;;;3.58;1.00;;;;;;;;;;4956724;28;20133;-89
2021/05/21 16:01:40;;;;;;;1.65;0.70;;;;;;;;;;4937519;28;20051;-89
2021/05/21 16:04:25;;;;;;;1.17;0.95;;;;;;;;;;4944701;28;20426;-89
2021/05/21 16:07:11;;;;;;;2.40;1.80;;;;;;;;;;4944423;28;20092;-90
2021/05/21 16:09:59;;;;;;;6.28;3.50;;;;;;;;;;4942648;28;20027;-90
2021/05/21 16:12:45;;;;;;;4.03;3.00;;;;;;;;;;4938289;28;20050;-89
2021/05/21 16:15:31;;;;;;;3.92;1.23;;;;;;;;;;4947527;29;20474;-90
2021/05/21 16:18:17;;;;;;;1.65;0.93;;;;;;;;;;4939772;28;20066;-90
2021/05/21 16:21:03;;;;;;;1.30;0.90;;;;;;;;;;4941555;29;20023;-90
2021/05/21 16:23:48;;;;;;;3.55;1.08;;;;;;;;;;4928036;28;20034;-89
2021/05/21 16:26:34;;;;;;;0.80;0.80;;;;;;;;;;4943753;29;20062;-89
2021/05/21 16:32:31;;;;;;;3.17;0.80;;;;;;;;;;4939690;28;20078;-89
2021/05/21 16:35:17;;;;;;;3.08;0.80;;;;;;;;;;4942730;28;20042;-88
2021/05/21 16:38:04;;;;;;;1.30;0.82;;;;;;;;;;4932717;28;20019;-89
2021/05/21 16:40:49;;;;;;;1.17;1.02;;;;;;;;;;4925690;28;20454;-89
2021/05/21 16:43:37;;;;;;;1.02;0.60;;;;;;;;;;4946263;28;20037;-89
2021/05/21 16:46:23;;;;;;;1.20;0.90;;;;;;;;;;4943412;28;20114;-90
2021/05/21 16:49:08;;;;;;;1.75;0.98;;;;;;;;;;4941075;29;20055;-89
2021/05/21 16:51:54;;;;;;;1.13;0.75;;;;;;;;;;4951713;28;20031;-89
2021/05/21 16:54:39;;;;;;;1.25;0.68;;;;;;;;;;4939801;28;20066;-90
2021/05/21 16:57:24;;;;;;;1.20;0.80;;;;;;;;;;4953567;28;20034;-90
2021/05/21 17:00:10;;;;;;;2.25;0.95;;;;;;;;;;4949231;28;20058;-90
2021/05/21 17:02:55;;;;;;;3.00;0.70;;;;;;;;;;4943574;28;20103;-87
2021/05/21 17:05:41;;;;;;;8.50;1.17;;;;;;;;;;4943586;28;20073;-88
2021/05/21 17:08:26;;;;;;;3.38;0.75;;;;;;;;;;4941581;28;20031;-90
2021/05/21 17:11:14;;;;;;;1.10;0.75;;;;;;;;;;4936963;29;20058;-91
2021/05/21 17:14:05;;;;;;;4.47;1.52;;;;;;;;;;4926728;28;20023;-91
2021/05/21 17:20:21;;;;;;;1.73;0.85;;;;;;;;;;4934953;28;20541;-90